sensor_id;sensor_type;location;lat;lon;timestamp;P1;durP1;ratioP1;P2;durP2;ratioP2
13493;SDS011;6819;50.886;4.332;2022-10-04T00:02:32;13.15;;;7.57;;
13493;SDS011;6819;50.886;4.332;2022-10-04T00:05:00;12.93;;;7.07;;
13493;SDS011;6819;50.886;4.332;2022-10-04T00:07:37;14.57;;;6.97;;
13493;SDS011;6819;50.886;4.332;2022-10-04T00:10:15;13.30;;;7.38;;
13493;SDS011;6819;50.886;4.332;2022-10-04T00:15:27;12.00;;;6.13;;
13493;SDS011;6819;50.886;4.332;2022-10-04T00:28:46;10.70;;;6.20;;
13493;SDS011;6819;50.886;4.332;2022-10-04T00:33:50;14.20;;;6.75;;
13493;SDS011;6819;50.886;4.332;2022-10-04T00:41:42;12.95;;;6.82;;
13493;SDS011;6819;50.886;4.332;2022-10-04T00:47:11;11.15;;;5.30;;
13493;SDS011;6819;50.886;4.332;2022-10-04T00:49:42;11.38;;;6.10;;
13493;SDS011;6819;50.886;4.332;2022-10-04T00:52:20;10.88;;;6.43;;
13493;SDS011;6819;50.886;4.332;2022-10-04T00:54:51;15.73;;;7.40;;
13493;SDS011;6819;50.886;4.332;2022-10-04T00:57:28;13.77;;;7.53;;
13493;SDS011;6819;50.886;4.332;2022-10-04T01:00:05;12.93;;;7.07;;
13493;SDS011;6819;50.886;4.332;2022-10-04T01:05:13;7.80;;;6.07;;
13493;SDS011;6819;50.886;4.332;2022-10-04T01:08:03;11.98;;;6.55;;
13493;SDS011;6819;50.886;4.332;2022-10-04T01:10:31;15.63;;;7.55;;
13493;SDS011;6819;50.886;4.332;2022-10-04T01:13:11;13.57;;;7.28;;
13493;SDS011;6819;50.886;4.332;2022-10-04T01:15:43;11.55;;;6.38;;
13493;SDS011;6819;50.886;4.332;2022-10-04T01:20:49;10.27;;;7.03;;
13493;SDS011;6819;50.886;4.332;2022-10-04T01:26:02;11.18;;;6.03;;
13493;SDS011;6819;50.886;4.332;2022-10-04T01:28:29;17.52;;;7.05;;
13493;SDS011;6819;50.886;4.332;2022-10-04T01:30:56;12.00;;;7.13;;
13493;SDS011;6819;50.886;4.332;2022-10-04T01:33:22;10.23;;;5.93;;
13493;SDS011;6819;50.886;4.332;2022-10-04T01:35:49;14.93;;;6.53;;
13493;SDS011;6819;50.886;4.332;2022-10-04T01:38:15;10.50;;;6.63;;
13493;SDS011;6819;50.886;4.332;2022-10-04T01:40:51;11.90;;;6.75;;
13493;SDS011;6819;50.886;4.332;2022-10-04T01:43:24;12.98;;;7.03;;
13493;SDS011;6819;50.886;4.332;2022-10-04T01:45:57;12.25;;;7.10;;
13493;SDS011;6819;50.886;4.332;2022-10-04T01:48:32;15.57;;;7.78;;
13493;SDS011;6819;50.886;4.332;2022-10-04T01:51:46;7.90;;;5.80;;
13493;SDS011;6819;50.886;4.332;2022-10-04T01:53:55;20.30;;;8.20;;
13493;SDS011;6819;50.886;4.332;2022-10-04T01:56:31;10.95;;;7.03;;
13493;SDS011;6819;50.886;4.332;2022-10-04T01:59:06;9.35;;;6.47;;
13493;SDS011;6819;50.886;4.332;2022-10-04T02:01:49;12.30;;;6.75;;
13493;SDS011;6819;50.886;4.332;2022-10-04T02:04:21;12.98;;;6.55;;
13493;SDS011;6819;50.886;4.332;2022-10-04T02:06:51;14.25;;;7.15;;
13493;SDS011;6819;50.886;4.332;2022-10-04T02:09:25;12.57;;;7.10;;
13493;SDS011;6819;50.886;4.332;2022-10-04T02:11:58;14.20;;;7.75;;
13493;SDS011;6819;50.886;4.332;2022-10-04T02:14:25;11.30;;;7.70;;
13493;SDS011;6819;50.886;4.332;2022-10-04T02:16:56;12.88;;;7.05;;
13493;SDS011;6819;50.886;4.332;2022-10-04T02:19:24;13.00;;;6.45;;
13493;SDS011;6819;50.886;4.332;2022-10-04T02:21:52;13.95;;;6.15;;
13493;SDS011;6819;50.886;4.332;2022-10-04T02:24:19;15.48;;;7.80;;
13493;SDS011;6819;50.886;4.332;2022-10-04T02:26:49;14.82;;;6.97;;
13493;SDS011;6819;50.886;4.332;2022-10-04T02:29:16;11.40;;;7.35;;
13493;SDS011;6819;50.886;4.332;2022-10-04T02:31:43;13.60;;;6.72;;
13493;SDS011;6819;50.886;4.332;2022-10-04T02:34:28;16.38;;;6.63;;
13493;SDS011;6819;50.886;4.332;2022-10-04T02:36:55;15.00;;;7.45;;
13493;SDS011;6819;50.886;4.332;2022-10-04T02:39:22;13.50;;;7.15;;
13493;SDS011;6819;50.886;4.332;2022-10-04T02:41:57;9.80;;;6.28;;
13493;SDS011;6819;50.886;4.332;2022-10-04T02:44:40;10.82;;;6.15;;
13493;SDS011;6819;50.886;4.332;2022-10-04T02:49:38;11.55;;;6.10;;
13493;SDS011;6819;50.886;4.332;2022-10-04T02:52:22;12.90;;;7.20;;
13493;SDS011;6819;50.886;4.332;2022-10-04T02:57:35;16.75;;;7.47;;
13493;SDS011;6819;50.886;4.332;2022-10-04T03:02:35;17.58;;;7.93;;
13493;SDS011;6819;50.886;4.332;2022-10-04T03:05:04;17.23;;;7.55;;
13493;SDS011;6819;50.886;4.332;2022-10-04T03:07:33;12.98;;;6.80;;
13493;SDS011;6819;50.886;4.332;2022-10-04T03:10:01;13.60;;;6.63;;
13493;SDS011;6819;50.886;4.332;2022-10-04T03:12:31;11.13;;;6.82;;
13493;SDS011;6819;50.886;4.332;2022-10-04T03:14:57;10.45;;;6.60;;
13493;SDS011;6819;50.886;4.332;2022-10-04T03:17:23;13.80;;;6.65;;
13493;SDS011;6819;50.886;4.332;2022-10-04T03:19:49;14.98;;;7.20;;
13493;SDS011;6819;50.886;4.332;2022-10-04T03:22:16;8.98;;;6.00;;
13493;SDS011;6819;50.886;4.332;2022-10-04T03:24:43;15.88;;;9.93;;
13493;SDS011;6819;50.886;4.332;2022-10-04T03:27:13;17.48;;;7.60;;
13493;SDS011;6819;50.886;4.332;2022-10-04T03:30:00;13.13;;;6.70;;
13493;SDS011;6819;50.886;4.332;2022-10-04T03:32:26;14.25;;;7.57;;
13493;SDS011;6819;50.886;4.332;2022-10-04T03:37:27;11.18;;;6.53;;
13493;SDS011;6819;50.886;4.332;2022-10-04T03:39:56;14.98;;;7.07;;
13493;SDS011;6819;50.886;4.332;2022-10-04T03:42:23;20.08;;;7.03;;
13493;SDS011;6819;50.886;4.332;2022-10-04T03:44:56;12.73;;;6.95;;
13493;SDS011;6819;50.886;4.332;2022-10-04T03:47:33;19.70;;;7.30;;
13493;SDS011;6819;50.886;4.332;2022-10-04T03:50:44;12.27;;;6.28;;
13493;SDS011;6819;50.886;4.332;2022-10-04T03:52:54;14.75;;;7.07;;
13493;SDS011;6819;50.886;4.332;2022-10-04T03:55:30;12.70;;;6.82;;
13493;SDS011;6819;50.886;4.332;2022-10-04T03:57:58;15.23;;;7.18;;
13493;SDS011;6819;50.886;4.332;2022-10-04T04:00:25;12.38;;;6.43;;
13493;SDS011;6819;50.886;4.332;2022-10-04T04:02:54;13.43;;;6.85;;
13493;SDS011;6819;50.886;4.332;2022-10-04T04:05:27;11.85;;;6.32;;
13493;SDS011;6819;50.886;4.332;2022-10-04T04:11:01;13.68;;;6.93;;
13493;SDS011;6819;50.886;4.332;2022-10-04T04:15:55;15.07;;;7.55;;
13493;SDS011;6819;50.886;4.332;2022-10-04T04:18:26;13.85;;;7.13;;
13493;SDS011;6819;50.886;4.332;2022-10-04T04:21:00;14.70;;;6.68;;
13493;SDS011;6819;50.886;4.332;2022-10-04T04:23:29;9.80;;;5.97;;
13493;SDS011;6819;50.886;4.332;2022-10-04T04:26:50;18.77;;;6.93;;
13493;SDS011;6819;50.886;4.332;2022-10-04T04:34:03;11.23;;;6.22;;
13493;SDS011;6819;50.886;4.332;2022-10-04T04:36:39;14.32;;;6.90;;
13493;SDS011;6819;50.886;4.332;2022-10-04T04:39:13;12.65;;;6.60;;
13493;SDS011;6819;50.886;4.332;2022-10-04T04:44:35;13.48;;;6.55;;
13493;SDS011;6819;50.886;4.332;2022-10-04T04:47:07;12.55;;;6.80;;
13493;SDS011;6819;50.886;4.332;2022-10-04T04:49:40;13.82;;;6.80;;
13493;SDS011;6819;50.886;4.332;2022-10-04T04:52:06;15.43;;;7.45;;
13493;SDS011;6819;50.886;4.332;2022-10-04T04:54:40;17.10;;;7.43;;
13493;SDS011;6819;50.886;4.332;2022-10-04T04:57:07;11.63;;;7.10;;
13493;SDS011;6819;50.886;4.332;2022-10-04T04:59:33;17.65;;;7.40;;
13493;SDS011;6819;50.886;4.332;2022-10-04T05:02:01;14.50;;;6.80;;
13493;SDS011;6819;50.886;4.332;2022-10-04T05:04:27;14.93;;;7.75;;
13493;SDS011;6819;50.886;4.332;2022-10-04T05:06:59;18.27;;;8.25;;
13493;SDS011;6819;50.886;4.332;2022-10-04T05:09:40;17.42;;;8.00;;
13493;SDS011;6819;50.886;4.332;2022-10-04T05:12:07;17.38;;;8.40;;
13493;SDS011;6819;50.886;4.332;2022-10-04T05:14:40;16.50;;;8.18;;
13493;SDS011;6819;50.886;4.332;2022-10-04T05:17:22;23.42;;;8.38;;
13493;SDS011;6819;50.886;4.332;2022-10-04T05:19:51;17.20;;;8.02;;
13493;SDS011;6819;50.886;4.332;2022-10-04T05:22:22;17.52;;;7.95;;
13493;SDS011;6819;50.886;4.332;2022-10-04T05:24:53;17.63;;;8.50;;
13493;SDS011;6819;50.886;4.332;2022-10-04T05:27:27;13.07;;;8.10;;
13493;SDS011;6819;50.886;4.332;2022-10-04T05:29:59;14.43;;;7.68;;
13493;SDS011;6819;50.886;4.332;2022-10-04T05:35:23;22.65;;;8.23;;
13493;SDS011;6819;50.886;4.332;2022-10-04T05:37:54;18.67;;;7.85;;
13493;SDS011;6819;50.886;4.332;2022-10-04T05:40:39;14.70;;;7.85;;
13493;SDS011;6819;50.886;4.332;2022-10-04T05:48:45;17.00;;;8.25;;
13493;SDS011;6819;50.886;4.332;2022-10-04T05:51:19;26.17;;;9.30;;
13493;SDS011;6819;50.886;4.332;2022-10-04T05:53:50;17.38;;;8.07;;
13493;SDS011;6819;50.886;4.332;2022-10-04T05:59:14;17.05;;;7.07;;
13493;SDS011;6819;50.886;4.332;2022-10-04T06:02:36;16.23;;;7.25;;
13493;SDS011;6819;50.886;4.332;2022-10-04T06:05:21;19.25;;;6.90;;
13493;SDS011;6819;50.886;4.332;2022-10-04T06:08:04;16.42;;;7.10;;
13493;SDS011;6819;50.886;4.332;2022-10-04T06:16:25;15.80;;;7.07;;
13493;SDS011;6819;50.886;4.332;2022-10-04T06:24:49;17.00;;;7.75;;
13493;SDS011;6819;50.886;4.332;2022-10-04T06:27:29;9.73;;;6.03;;
13493;SDS011;6819;50.886;4.332;2022-10-04T06:30:15;19.13;;;6.97;;
13493;SDS011;6819;50.886;4.332;2022-10-04T06:49:15;17.30;;;9.48;;
13493;SDS011;6819;50.886;4.332;2022-10-04T06:51:52;19.58;;;7.45;;
13493;SDS011;6819;50.886;4.332;2022-10-04T07:00:17;20.05;;;7.85;;
13493;SDS011;6819;50.886;4.332;2022-10-04T07:02:46;13.88;;;7.38;;
13493;SDS011;6819;50.886;4.332;2022-10-04T07:08:40;14.30;;;7.13;;
13493;SDS011;6819;50.886;4.332;2022-10-04T07:11:25;13.68;;;7.75;;
13493;SDS011;6819;50.886;4.332;2022-10-04T07:16:47;18.05;;;7.32;;
13493;SDS011;6819;50.886;4.332;2022-10-04T07:25:15;22.45;;;8.10;;
13493;SDS011;6819;50.886;4.332;2022-10-04T07:27:20;13.95;;;7.03;;
13493;SDS011;6819;50.886;4.332;2022-10-04T07:29:51;14.32;;;7.00;;
13493;SDS011;6819;50.886;4.332;2022-10-04T07:32:22;20.52;;;7.05;;
13493;SDS011;6819;50.886;4.332;2022-10-04T07:34:51;17.88;;;7.07;;
13493;SDS011;6819;50.886;4.332;2022-10-04T07:37:32;18.85;;;6.90;;
13493;SDS011;6819;50.886;4.332;2022-10-04T07:40:17;17.67;;;6.95;;
13493;SDS011;6819;50.886;4.332;2022-10-04T07:45:31;17.02;;;6.05;;
13493;SDS011;6819;50.886;4.332;2022-10-04T07:48:12;13.07;;;6.18;;
13493;SDS011;6819;50.886;4.332;2022-10-04T07:50:48;14.98;;;6.35;;
13493;SDS011;6819;50.886;4.332;2022-10-04T07:56:05;13.27;;;6.10;;
13493;SDS011;6819;50.886;4.332;2022-10-04T07:58:41;14.10;;;6.20;;
13493;SDS011;6819;50.886;4.332;2022-10-04T08:01:51;15.23;;;6.20;;
13493;SDS011;6819;50.886;4.332;2022-10-04T08:07:13;10.60;;;5.88;;
13493;SDS011;6819;50.886;4.332;2022-10-04T08:15:47;14.18;;;5.90;;
13493;SDS011;6819;50.886;4.332;2022-10-04T08:21:16;13.23;;;5.55;;
13493;SDS011;6819;50.886;4.332;2022-10-04T08:23:58;14.32;;;6.30;;
13493;SDS011;6819;50.886;4.332;2022-10-04T08:49:37;18.50;;;6.38;;
13493;SDS011;6819;50.886;4.332;2022-10-04T08:55:43;13.80;;;6.05;;
13493;SDS011;6819;50.886;4.332;2022-10-04T09:01:30;10.05;;;6.05;;
13493;SDS011;6819;50.886;4.332;2022-10-04T09:12:46;15.77;;;5.88;;
13493;SDS011;6819;50.886;4.332;2022-10-04T09:23:44;19.02;;;5.88;;
13493;SDS011;6819;50.886;4.332;2022-10-04T09:26:22;13.70;;;5.70;;
13493;SDS011;6819;50.886;4.332;2022-10-04T09:29:19;12.18;;;5.60;;
13493;SDS011;6819;50.886;4.332;2022-10-04T09:51:57;11.43;;;4.65;;
13493;SDS011;6819;50.886;4.332;2022-10-04T09:54:49;9.25;;;4.97;;
13493;SDS011;6819;50.886;4.332;2022-10-04T10:03:47;9.77;;;4.72;;
13493;SDS011;6819;50.886;4.332;2022-10-04T10:11:56;14.95;;;5.20;;
13493;SDS011;6819;50.886;4.332;2022-10-04T10:20:15;13.52;;;4.75;;
13493;SDS011;6819;50.886;4.332;2022-10-04T10:31:49;9.75;;;4.68;;
13493;SDS011;6819;50.886;4.332;2022-10-04T10:40:29;8.57;;;4.43;;
13493;SDS011;6819;50.886;4.332;2022-10-04T10:43:11;13.43;;;5.00;;
13493;SDS011;6819;50.886;4.332;2022-10-04T11:00:18;8.48;;;4.05;;
13493;SDS011;6819;50.886;4.332;2022-10-04T11:11:20;8.93;;;4.05;;
13493;SDS011;6819;50.886;4.332;2022-10-04T11:27:52;7.78;;;4.03;;
13493;SDS011;6819;50.886;4.332;2022-10-04T11:30:18;9.77;;;4.45;;
13493;SDS011;6819;50.886;4.332;2022-10-04T11:36:11;11.80;;;4.35;;
13493;SDS011;6819;50.886;4.332;2022-10-04T11:45:05;6.72;;;3.42;;
13493;SDS011;6819;50.886;4.332;2022-10-04T11:56:40;9.27;;;4.13;;
13493;SDS011;6819;50.886;4.332;2022-10-04T12:07:56;10.60;;;3.38;;
13493;SDS011;6819;50.886;4.332;2022-10-04T12:18:45;6.20;;;3.30;;
13493;SDS011;6819;50.886;4.332;2022-10-04T12:21:37;5.50;;;3.13;;
13493;SDS011;6819;50.886;4.332;2022-10-04T12:27:08;9.88;;;3.63;;
13493;SDS011;6819;50.886;4.332;2022-10-04T12:30:13;9.48;;;3.05;;
13493;SDS011;6819;50.886;4.332;2022-10-04T12:35:46;13.30;;;3.30;;
13493;SDS011;6819;50.886;4.332;2022-10-04T12:52:15;6.65;;;3.33;;
13493;SDS011;6819;50.886;4.332;2022-10-04T12:57:36;4.97;;;3.28;;
13493;SDS011;6819;50.886;4.332;2022-10-04T13:08:29;8.80;;;3.45;;
13493;SDS011;6819;50.886;4.332;2022-10-04T13:19:22;10.82;;;3.70;;
13493;SDS011;6819;50.886;4.332;2022-10-04T13:30:46;4.85;;;3.28;;
13493;SDS011;6819;50.886;4.332;2022-10-04T13:39:08;9.35;;;2.90;;
13493;SDS011;6819;50.886;4.332;2022-10-04T13:41:51;5.32;;;2.70;;
13493;SDS011;6819;50.886;4.332;2022-10-04T13:47:22;3.60;;;2.33;;
13493;SDS011;6819;50.886;4.332;2022-10-04T13:56:14;8.30;;;1.90;;
13493;SDS011;6819;50.886;4.332;2022-10-04T13:59:39;8.00;;;2.23;;
13493;SDS011;6819;50.886;4.332;2022-10-04T14:25:01;3.97;;;1.92;;
13493;SDS011;6819;50.886;4.332;2022-10-04T14:28:09;5.85;;;2.10;;
13493;SDS011;6819;50.886;4.332;2022-10-04T14:36:29;5.00;;;2.50;;
13493;SDS011;6819;50.886;4.332;2022-10-04T14:50:14;3.78;;;1.90;;
13493;SDS011;6819;50.886;4.332;2022-10-04T15:09:22;5.03;;;2.00;;
13493;SDS011;6819;50.886;4.332;2022-10-04T15:11:56;6.05;;;2.20;;
13493;SDS011;6819;50.886;4.332;2022-10-04T15:14:59;8.70;;;2.72;;
13493;SDS011;6819;50.886;4.332;2022-10-04T15:23:15;4.78;;;3.08;;
13493;SDS011;6819;50.886;4.332;2022-10-04T15:25:55;6.35;;;2.95;;
13493;SDS011;6819;50.886;4.332;2022-10-04T15:31:10;5.65;;;2.92;;
13493;SDS011;6819;50.886;4.332;2022-10-04T15:34:12;7.45;;;3.10;;
13493;SDS011;6819;50.886;4.332;2022-10-04T15:37:24;6.50;;;2.60;;
13493;SDS011;6819;50.886;4.332;2022-10-04T15:40:20;5.93;;;3.10;;
13493;SDS011;6819;50.886;4.332;2022-10-04T15:49:14;6.00;;;2.60;;
13493;SDS011;6819;50.886;4.332;2022-10-04T15:52:09;6.32;;;2.70;;
13493;SDS011;6819;50.886;4.332;2022-10-04T15:57:51;7.25;;;2.88;;
13493;SDS011;6819;50.886;4.332;2022-10-04T16:06:46;7.05;;;3.00;;
13493;SDS011;6819;50.886;4.332;2022-10-04T16:09:35;6.65;;;2.83;;
13493;SDS011;6819;50.886;4.332;2022-10-04T16:12:32;9.73;;;3.20;;
13493;SDS011;6819;50.886;4.332;2022-10-04T16:15:31;4.70;;;3.15;;
13493;SDS011;6819;50.886;4.332;2022-10-04T16:18:10;4.45;;;3.08;;
13493;SDS011;6819;50.886;4.332;2022-10-04T16:21:16;8.55;;;3.30;;
13493;SDS011;6819;50.886;4.332;2022-10-04T16:27:11;7.30;;;3.03;;
13493;SDS011;6819;50.886;4.332;2022-10-04T16:35:04;9.15;;;3.92;;
13493;SDS011;6819;50.886;4.332;2022-10-04T16:51:18;8.63;;;3.60;;
13493;SDS011;6819;50.886;4.332;2022-10-04T16:57:10;7.47;;;3.85;;
13493;SDS011;6819;50.886;4.332;2022-10-04T17:04:51;8.18;;;3.88;;
13493;SDS011;6819;50.886;4.332;2022-10-04T17:10:30;7.27;;;3.53;;
13493;SDS011;6819;50.886;4.332;2022-10-04T17:16:04;10.75;;;4.05;;
13493;SDS011;6819;50.886;4.332;2022-10-04T17:20:58;5.72;;;4.13;;
13493;SDS011;6819;50.886;4.332;2022-10-04T17:32:09;6.90;;;3.78;;
13493;SDS011;6819;50.886;4.332;2022-10-04T17:34:56;8.70;;;4.65;;
13493;SDS011;6819;50.886;4.332;2022-10-04T17:43:13;10.10;;;4.50;;
13493;SDS011;6819;50.886;4.332;2022-10-04T17:46:20;7.72;;;4.25;;
13493;SDS011;6819;50.886;4.332;2022-10-04T17:48:53;8.52;;;4.72;;
13493;SDS011;6819;50.886;4.332;2022-10-04T17:51:43;5.78;;;3.90;;
13493;SDS011;6819;50.886;4.332;2022-10-04T17:54:45;7.55;;;4.60;;
13493;SDS011;6819;50.886;4.332;2022-10-04T18:00:07;10.00;;;5.25;;
13493;SDS011;6819;50.886;4.332;2022-10-04T18:05:42;12.35;;;5.93;;
13493;SDS011;6819;50.886;4.332;2022-10-04T18:11:15;9.85;;;5.22;;
13493;SDS011;6819;50.886;4.332;2022-10-04T18:13:59;12.95;;;5.13;;
13493;SDS011;6819;50.886;4.332;2022-10-04T18:16:44;11.77;;;5.47;;
13493;SDS011;6819;50.886;4.332;2022-10-04T18:22:16;7.65;;;5.10;;
13493;SDS011;6819;50.886;4.332;2022-10-04T18:24:44;11.35;;;6.00;;
13493;SDS011;6819;50.886;4.332;2022-10-04T18:34:55;9.15;;;5.47;;
13493;SDS011;6819;50.886;4.332;2022-10-04T18:37:31;10.25;;;5.30;;
13493;SDS011;6819;50.886;4.332;2022-10-04T18:40:27;8.70;;;5.07;;
13493;SDS011;6819;50.886;4.332;2022-10-04T18:43:07;11.93;;;6.13;;
13493;SDS011;6819;50.886;4.332;2022-10-04T18:46:17;11.13;;;6.03;;
13493;SDS011;6819;50.886;4.332;2022-10-04T18:57:03;12.85;;;6.43;;
13493;SDS011;6819;50.886;4.332;2022-10-04T19:00:01;10.57;;;4.95;;
13493;SDS011;6819;50.886;4.332;2022-10-04T19:03:03;11.48;;;6.05;;
13493;SDS011;6819;50.886;4.332;2022-10-04T19:05:53;13.77;;;6.07;;
13493;SDS011;6819;50.886;4.332;2022-10-04T19:11:23;11.95;;;5.68;;
13493;SDS011;6819;50.886;4.332;2022-10-04T19:32:51;9.60;;;5.30;;
13493;SDS011;6819;50.886;4.332;2022-10-04T19:49:06;11.05;;;5.68;;
13493;SDS011;6819;50.886;4.332;2022-10-04T19:51:45;16.42;;;5.93;;
13493;SDS011;6819;50.886;4.332;2022-10-04T19:54:17;12.27;;;5.38;;
13493;SDS011;6819;50.886;4.332;2022-10-04T19:56:50;11.27;;;5.78;;
13493;SDS011;6819;50.886;4.332;2022-10-04T19:59:36;9.38;;;5.20;;
13493;SDS011;6819;50.886;4.332;2022-10-04T20:02:08;11.73;;;5.20;;
13493;SDS011;6819;50.886;4.332;2022-10-04T20:04:34;10.13;;;5.78;;
13493;SDS011;6819;50.886;4.332;2022-10-04T20:07:06;11.98;;;5.18;;
13493;SDS011;6819;50.886;4.332;2022-10-04T20:17:38;11.88;;;5.70;;
13493;SDS011;6819;50.886;4.332;2022-10-04T20:20:05;9.52;;;5.47;;
13493;SDS011;6819;50.886;4.332;2022-10-04T20:22:52;9.70;;;5.35;;
13493;SDS011;6819;50.886;4.332;2022-10-04T20:28:08;9.85;;;5.57;;
13493;SDS011;6819;50.886;4.332;2022-10-04T20:31:04;11.05;;;5.55;;
13493;SDS011;6819;50.886;4.332;2022-10-04T20:38:51;12.45;;;5.43;;
13493;SDS011;6819;50.886;4.332;2022-10-04T20:43:57;8.30;;;5.05;;
13493;SDS011;6819;50.886;4.332;2022-10-04T20:46:37;8.65;;;5.35;;
13493;SDS011;6819;50.886;4.332;2022-10-04T20:49:04;9.60;;;5.10;;
13493;SDS011;6819;50.886;4.332;2022-10-04T20:51:45;12.25;;;5.25;;
13493;SDS011;6819;50.886;4.332;2022-10-04T20:54:15;17.33;;;5.95;;
13493;SDS011;6819;50.886;4.332;2022-10-04T20:56:48;9.38;;;5.15;;
13493;SDS011;6819;50.886;4.332;2022-10-04T20:59:16;8.68;;;5.00;;
13493;SDS011;6819;50.886;4.332;2022-10-04T21:01:42;11.25;;;4.80;;
13493;SDS011;6819;50.886;4.332;2022-10-04T21:04:34;10.50;;;5.07;;
13493;SDS011;6819;50.886;4.332;2022-10-04T21:07:15;11.27;;;5.15;;
13493;SDS011;6819;50.886;4.332;2022-10-04T21:09:43;8.65;;;5.03;;
13493;SDS011;6819;50.886;4.332;2022-10-04T21:17:40;7.75;;;4.70;;
13493;SDS011;6819;50.886;4.332;2022-10-04T21:20:12;8.90;;;4.47;;
13493;SDS011;6819;50.886;4.332;2022-10-04T21:23:39;8.23;;;4.88;;
13493;SDS011;6819;50.886;4.332;2022-10-04T21:28:51;9.50;;;4.68;;
13493;SDS011;6819;50.886;4.332;2022-10-04T21:31:23;10.20;;;4.47;;
13493;SDS011;6819;50.886;4.332;2022-10-04T21:33:49;8.55;;;4.70;;
13493;SDS011;6819;50.886;4.332;2022-10-04T21:36:15;9.60;;;4.60;;
13493;SDS011;6819;50.886;4.332;2022-10-04T21:38:41;9.30;;;4.80;;
13493;SDS011;6819;50.886;4.332;2022-10-04T21:41:07;10.68;;;4.57;;
13493;SDS011;6819;50.886;4.332;2022-10-04T21:43:33;9.65;;;4.22;;
13493;SDS011;6819;50.886;4.332;2022-10-04T21:45:59;7.00;;;4.30;;
13493;SDS011;6819;50.886;4.332;2022-10-04T21:48:25;8.55;;;4.68;;
13493;SDS011;6819;50.886;4.332;2022-10-04T21:50:52;9.07;;;5.10;;
13493;SDS011;6819;50.886;4.332;2022-10-04T21:53:18;8.73;;;4.45;;
13493;SDS011;6819;50.886;4.332;2022-10-04T21:55:45;8.23;;;4.18;;
13493;SDS011;6819;50.886;4.332;2022-10-04T21:58:11;8.93;;;4.40;;
13493;SDS011;6819;50.886;4.332;2022-10-04T22:00:37;10.07;;;4.72;;
13493;SDS011;6819;50.886;4.332;2022-10-04T22:03:03;10.18;;;4.50;;
13493;SDS011;6819;50.886;4.332;2022-10-04T22:05:29;6.82;;;4.35;;
13493;SDS011;6819;50.886;4.332;2022-10-04T22:07:56;8.20;;;4.50;;
13493;SDS011;6819;50.886;4.332;2022-10-04T22:10:22;8.57;;;4.68;;
13493;SDS011;6819;50.886;4.332;2022-10-04T22:12:48;6.93;;;4.25;;
13493;SDS011;6819;50.886;4.332;2022-10-04T22:15:15;8.32;;;4.90;;
13493;SDS011;6819;50.886;4.332;2022-10-04T22:17:41;5.93;;;4.35;;
13493;SDS011;6819;50.886;4.332;2022-10-04T22:20:07;10.63;;;5.22;;
13493;SDS011;6819;50.886;4.332;2022-10-04T22:22:33;8.30;;;4.70;;
13493;SDS011;6819;50.886;4.332;2022-10-04T22:24:59;8.45;;;4.20;;
13493;SDS011;6819;50.886;4.332;2022-10-04T22:27:26;7.10;;;3.90;;
13493;SDS011;6819;50.886;4.332;2022-10-04T22:29:54;7.40;;;4.90;;
13493;SDS011;6819;50.886;4.332;2022-10-04T22:32:21;8.05;;;4.18;;
13493;SDS011;6819;50.886;4.332;2022-10-04T22:34:48;7.93;;;4.25;;
13493;SDS011;6819;50.886;4.332;2022-10-04T22:37:15;6.35;;;4.15;;
13493;SDS011;6819;50.886;4.332;2022-10-04T22:39:44;5.57;;;3.65;;
13493;SDS011;6819;50.886;4.332;2022-10-04T22:42:10;6.80;;;4.53;;
13493;SDS011;6819;50.886;4.332;2022-10-04T22:44:37;8.02;;;4.07;;
13493;SDS011;6819;50.886;4.332;2022-10-04T22:47:06;7.72;;;3.95;;
13493;SDS011;6819;50.886;4.332;2022-10-04T22:49:35;6.45;;;4.60;;
13493;SDS011;6819;50.886;4.332;2022-10-04T22:52:04;8.57;;;3.97;;
13493;SDS011;6819;50.886;4.332;2022-10-04T22:54:31;8.52;;;4.57;;
13493;SDS011;6819;50.886;4.332;2022-10-04T22:56:57;6.40;;;4.05;;
13493;SDS011;6819;50.886;4.332;2022-10-04T23:02:20;7.25;;;4.07;;
13493;SDS011;6819;50.886;4.332;2022-10-04T23:04:54;12.02;;;4.75;;
13493;SDS011;6819;50.886;4.332;2022-10-04T23:07:21;11.40;;;4.95;;
13493;SDS011;6819;50.886;4.332;2022-10-04T23:09:47;7.90;;;4.65;;
13493;SDS011;6819;50.886;4.332;2022-10-04T23:12:13;9.73;;;4.68;;
13493;SDS011;6819;50.886;4.332;2022-10-04T23:14:40;9.23;;;4.75;;
13493;SDS011;6819;50.886;4.332;2022-10-04T23:17:18;10.40;;;4.93;;
13493;SDS011;6819;50.886;4.332;2022-10-04T23:19:45;8.20;;;5.00;;
13493;SDS011;6819;50.886;4.332;2022-10-04T23:22:13;7.05;;;4.40;;
13493;SDS011;6819;50.886;4.332;2022-10-04T23:24:40;9.93;;;4.70;;
13493;SDS011;6819;50.886;4.332;2022-10-04T23:27:09;10.45;;;5.40;;
13493;SDS011;6819;50.886;4.332;2022-10-04T23:29:36;7.82;;;4.80;;
13493;SDS011;6819;50.886;4.332;2022-10-04T23:32:13;7.53;;;5.05;;
13493;SDS011;6819;50.886;4.332;2022-10-04T23:34:40;10.27;;;5.20;;
13493;SDS011;6819;50.886;4.332;2022-10-04T23:37:18;9.65;;;5.22;;
13493;SDS011;6819;50.886;4.332;2022-10-04T23:39:44;8.57;;;5.03;;
13493;SDS011;6819;50.886;4.332;2022-10-04T23:42:12;12.35;;;5.15;;
13493;SDS011;6819;50.886;4.332;2022-10-04T23:44:40;10.73;;;4.45;;
13493;SDS011;6819;50.886;4.332;2022-10-04T23:47:53;10.27;;;5.30;;
13493;SDS011;6819;50.886;4.332;2022-10-04T23:49:53;10.02;;;5.68;;
13493;SDS011;6819;50.886;4.332;2022-10-04T23:52:24;11.77;;;5.47;;
13493;SDS011;6819;50.886;4.332;2022-10-04T23:54:51;11.10;;;6.10;;
13493;SDS011;6819;50.886;4.332;2022-10-04T23:57:22;11.13;;;6.13;;
13493;SDS011;6819;50.886;4.332;2022-10-04T23:59:49;12.10;;;6.25;;
